Muddy Creek Forks, Pennsylvania
Current Conditions -  °F | °C
As of 1:53 PM on Thursday 18 Dec 2014 (Local Time) from KLNS Reporting Station
Overcast Overcast  
Wind Chill: 25°   Ceiling: 3400
Heat Index: 36°   Visibility: 10mi
Dew Point: 23°   Wind: 21mph
Humidity: 59%   Direction: 290°WNW
Pressure: 30.06"   Gusts: NA
Location:  39.8258°N, 76.3995°W
Report Text: KLNS 181853Z 29018KT 10SM FEW029 OVC034 02/M05 A3006 RMK AO2 SLP181 T00221050
Loading
Personal Weather Stations






























Interactive Weather Map New forecast layout! Learn more

10-Day Weather Forecast

Advertisements
Track Severe Weather on mobile